Marine Rescue Ps-30 — PS-30 — position and weather

sailwx.info

Track history (hours):
 
Tides and Currents Weather Stations Pressure Air Temp Water Temp Dewpoint Dewpoint Depression Visibility Wind Speed Wind Dir Waves Ship Positions

Marine Rescue Ps-30

Last reported at 2017-Sep-22 02:01 UTC. Time now 2017-Sep-22 11:44 UTC.
Position S 32°43' E 152°12'.

Length 9 m.

Type: SAR. MMSI: 503613700.

Date/timePositionNaut miles runAvg speedWind from/ knotsBaromVisibWave heightAir tempDewpointWater temp
2017-Sep-22 02:01S 32°43' E 152°12'3 6.5
2017-Sep-22 01:31S 32°46' E 152°11'4 7.3
2017-Sep-22 01:00S 32°43' E 152°09'0 0.0
2017-Sep-21 05:29S 32°43' E 152°09'0 0.0
2017-Sep-21 02:34S 32°43' E 152°09'0 0.0
2017-Sep-21 02:31S 32°43' E 152°09'715.0
2017-Sep-21 02:01S 32°39' E 152°16'3 6.9
2017-Sep-21 01:30S 32°36' E 152°19'2 3.6
2017-Sep-21 01:00S 32°38' E 152°18'3 5.8
2017-Sep-21 00:30S 32°40' E 152°15'  
2017-Sep-16 05:37S 32°43' E 152°09'0 0.0
2017-Sep-16 05:30S 32°43' E 152°09'3 6.4
2017-Sep-16 05:01S 32°40' E 152°10'1 2.6
2017-Sep-16 04:30S 32°39' E 152°10'1 2.1
2017-Sep-16 04:00S 32°38' E 152°11'1 2.6
2017-Sep-16 03:30S 32°37' E 152°12'2 3.0
2017-Sep-16 02:58S 32°36' E 152°13'1 1.6
2017-Sep-16 02:27S 32°36' E 152°14'2 4.0
2017-Sep-16 01:58S 32°35' E 152°16'0 0.0
2017-Sep-16 01:28S 32°35' E 152°16'0 0.0
2017-Sep-16 01:00S 32°35' E 152°16'0 0.1
2017-Sep-16 00:30S 32°35' E 152°16'0 0.0
2017-Sep-15 23:56S 32°35' E 152°16'0 0.0
2017-Sep-15 23:28S 32°35' E 152°16'0 0.1
2017-Sep-15 22:59S 32°35' E 152°16'5 9.2
2017-Sep-15 22:30S 32°37' E 152°12'3 5.5
2017-Sep-15 22:00S 32°39' E 152°10'1 0.9
2017-Sep-15 21:09S 32°40' E 152°10'1 4.9
2017-Sep-15 21:00S 32°41' E 152°09'3 5.1
2017-Sep-15 20:30S 32°43' E 152°09'0 0.0
2017-Sep-15 08:48S 32°43' E 152°09'0 0.0
2017-Sep-15 08:01S 32°43' E 152°09'0 0.0
2017-Sep-15 03:42S 32°43' E 152°09'0 0.0
2017-Sep-13 00:33S 32°43' E 152°09'0 0.0
2017-Sep-13 00:30S 32°43' E 152°09'0 0.0
2017-Sep-13 00:00S 32°43' E 152°09'0 0.0
2017-Sep-12 23:30S 32°43' E 152°09'0 0.0
2017-Sep-12 23:01S 32°43' E 152°09'  
Track history (hours):
 
Tides and Currents Weather Stations Pressure Air Temp Water Temp Dewpoint Dewpoint Depression Visibility Wind Speed Wind Dir Waves Ship Positions

Marine Rescue Ps-30

Last reported at 2017-Sep-22 02:01 UTC. Time now 2017-Sep-22 11:44 UTC.
Position S 32°43' E 152°12'.

Length 9 m.

Type: SAR. MMSI: 503613700.

Date/timePositionNaut miles runAvg speedWind from/ knotsBaromVisibWave heightAir tempDewpointWater temp
2017-Sep-22 02:01S 32°43' E 152°12'3 6.5
2017-Sep-22 01:31S 32°46' E 152°11'4 7.3
2017-Sep-22 01:00S 32°43' E 152°09'0 0.0
2017-Sep-21 05:29S 32°43' E 152°09'0 0.0
2017-Sep-21 02:34S 32°43' E 152°09'0 0.0
2017-Sep-21 02:31S 32°43' E 152°09'715.0
2017-Sep-21 02:01S 32°39' E 152°16'3 6.9
2017-Sep-21 01:30S 32°36' E 152°19'2 3.6
2017-Sep-21 01:00S 32°38' E 152°18'3 5.8
2017-Sep-21 00:30S 32°40' E 152°15'  
2017-Sep-16 05:37S 32°43' E 152°09'0 0.0
2017-Sep-16 05:30S 32°43' E 152°09'3 6.4
2017-Sep-16 05:01S 32°40' E 152°10'1 2.6
2017-Sep-16 04:30S 32°39' E 152°10'1 2.1
2017-Sep-16 04:00S 32°38' E 152°11'1 2.6
2017-Sep-16 03:30S 32°37' E 152°12'2 3.0
2017-Sep-16 02:58S 32°36' E 152°13'1 1.6
2017-Sep-16 02:27S 32°36' E 152°14'2 4.0
2017-Sep-16 01:58S 32°35' E 152°16'0 0.0
2017-Sep-16 01:28S 32°35' E 152°16'0 0.0
2017-Sep-16 01:00S 32°35' E 152°16'0 0.1
2017-Sep-16 00:30S 32°35' E 152°16'0 0.0
2017-Sep-15 23:56S 32°35' E 152°16'0 0.0
2017-Sep-15 23:28S 32°35' E 152°16'0 0.1
2017-Sep-15 22:59S 32°35' E 152°16'5 9.2
2017-Sep-15 22:30S 32°37' E 152°12'3 5.5
2017-Sep-15 22:00S 32°39' E 152°10'1 0.9
2017-Sep-15 21:09S 32°40' E 152°10'1 4.9
2017-Sep-15 21:00S 32°41' E 152°09'3 5.1
2017-Sep-15 20:30S 32°43' E 152°09'0 0.0
2017-Sep-15 08:48S 32°43' E 152°09'0 0.0
2017-Sep-15 08:01S 32°43' E 152°09'0 0.0
2017-Sep-15 03:42S 32°43' E 152°09'0 0.0
2017-Sep-13 00:33S 32°43' E 152°09'0 0.0
2017-Sep-13 00:30S 32°43' E 152°09'0 0.0
2017-Sep-13 00:00S 32°43' E 152°09'0 0.0
2017-Sep-12 23:30S 32°43' E 152°09'0 0.0
2017-Sep-12 23:01S 32°43' E 152°09'  

Dump ship's entire track history